sensor_id;sensor_type;location;lat;lon;timestamp;temperature;humidity
33811;DHT22;20119;48.334;16.206;2023-03-01T00:01:00;-2.70;99.90
33811;DHT22;20119;48.334;16.206;2023-03-01T00:03:27;-2.70;99.90
33811;DHT22;20119;48.334;16.206;2023-03-01T00:05:55;-2.60;99.90
33811;DHT22;20119;48.334;16.206;2023-03-01T00:08:22;-2.70;99.90
33811;DHT22;20119;48.334;16.206;2023-03-01T00:11:00;-2.70;99.90
33811;DHT22;20119;48.334;16.206;2023-03-01T00:13:28;-2.70;99.90
33811;DHT22;20119;48.334;16.206;2023-03-01T00:15:55;-2.70;99.90
33811;DHT22;20119;48.334;16.206;2023-03-01T00:18:23;-2.70;99.90
33811;DHT22;20119;48.334;16.206;2023-03-01T00:20:52;-2.70;99.90
33811;DHT22;20119;48.334;16.206;2023-03-01T00:23:20;-2.80;99.90
33811;DHT22;20119;48.334;16.206;2023-03-01T00:25:47;-2.90;99.90
33811;DHT22;20119;48.334;16.206;2023-03-01T00:28:16;-2.90;99.90
33811;DHT22;20119;48.334;16.206;2023-03-01T00:30:43;-2.90;99.90
33811;DHT22;20119;48.334;16.206;2023-03-01T00:33:11;-2.90;99.90
33811;DHT22;20119;48.334;16.206;2023-03-01T00:35:38;-3.00;99.90
33811;DHT22;20119;48.334;16.206;2023-03-01T00:38:06;-3.10;99.90
33811;DHT22;20119;48.334;16.206;2023-03-01T00:40:34;-3.10;99.90
33811;DHT22;20119;48.334;16.206;2023-03-01T00:43:02;-3.10;99.90
33811;DHT22;20119;48.334;16.206;2023-03-01T00:45:32;-3.00;99.90
33811;DHT22;20119;48.334;16.206;2023-03-01T00:47:59;-3.00;99.90
33811;DHT22;20119;48.334;16.206;2023-03-01T00:50:26;-3.00;99.90
33811;DHT22;20119;48.334;16.206;2023-03-01T00:52:54;-3.00;99.90
33811;DHT22;20119;48.334;16.206;2023-03-01T00:55:22;-3.00;99.90
33811;DHT22;20119;48.334;16.206;2023-03-01T00:57:50;-3.10;99.90
33811;DHT22;20119;48.334;16.206;2023-03-01T01:00:18;-3.10;99.90
33811;DHT22;20119;48.334;16.206;2023-03-01T01:02:47;-3.10;99.90
33811;DHT22;20119;48.334;16.206;2023-03-01T01:05:14;-3.20;99.90
33811;DHT22;20119;48.334;16.206;2023-03-01T01:07:46;-3.30;99.90
33811;DHT22;20119;48.334;16.206;2023-03-01T01:10:14;-3.30;99.90
33811;DHT22;20119;48.334;16.206;2023-03-01T01:12:43;-3.30;99.90
33811;DHT22;20119;48.334;16.206;2023-03-01T01:15:10;-3.30;99.90
33811;DHT22;20119;48.334;16.206;2023-03-01T01:17:39;-3.40;99.90
33811;DHT22;20119;48.334;16.206;2023-03-01T01:20:10;-3.40;99.90
33811;DHT22;20119;48.334;16.206;2023-03-01T01:22:37;-3.40;99.90
33811;DHT22;20119;48.334;16.206;2023-03-01T01:25:05;-3.30;99.90
33811;DHT22;20119;48.334;16.206;2023-03-01T01:27:32;-3.40;99.90
33811;DHT22;20119;48.334;16.206;2023-03-01T01:29:59;-3.40;99.90
33811;DHT22;20119;48.334;16.206;2023-03-01T01:32:26;-3.40;99.90
33811;DHT22;20119;48.334;16.206;2023-03-01T01:34:53;-3.30;99.90
33811;DHT22;20119;48.334;16.206;2023-03-01T01:37:22;-3.40;99.90
33811;DHT22;20119;48.334;16.206;2023-03-01T01:39:56;-3.40;99.90
33811;DHT22;20119;48.334;16.206;2023-03-01T01:42:23;-3.40;99.90
33811;DHT22;20119;48.334;16.206;2023-03-01T01:45:26;-3.40;99.90
33811;DHT22;20119;48.334;16.206;2023-03-01T01:47:54;-3.40;99.90
33811;DHT22;20119;48.334;16.206;2023-03-01T01:50:22;-3.40;99.90
33811;DHT22;20119;48.334;16.206;2023-03-01T01:52:53;-3.40;99.90
33811;DHT22;20119;48.334;16.206;2023-03-01T01:55:22;-3.40;99.90
33811;DHT22;20119;48.334;16.206;2023-03-01T01:57:53;-3.50;99.90
33811;DHT22;20119;48.334;16.206;2023-03-01T02:00:24;-3.60;99.90
33811;DHT22;20119;48.334;16.206;2023-03-01T02:02:53;-3.50;99.90
33811;DHT22;20119;48.334;16.206;2023-03-01T02:05:26;-3.50;99.90
33811;DHT22;20119;48.334;16.206;2023-03-01T02:07:57;-3.50;99.90
33811;DHT22;20119;48.334;16.206;2023-03-01T02:10:25;-3.50;99.90
33811;DHT22;20119;48.334;16.206;2023-03-01T02:12:54;-3.60;99.90
33811;DHT22;20119;48.334;16.206;2023-03-01T02:15:22;-3.60;99.90
33811;DHT22;20119;48.334;16.206;2023-03-01T02:17:49;-3.60;99.90
33811;DHT22;20119;48.334;16.206;2023-03-01T02:20:21;-3.70;99.90
33811;DHT22;20119;48.334;16.206;2023-03-01T02:22:49;-3.60;99.90
33811;DHT22;20119;48.334;16.206;2023-03-01T02:25:28;-3.60;99.90
33811;DHT22;20119;48.334;16.206;2023-03-01T02:28:01;-3.60;99.90
33811;DHT22;20119;48.334;16.206;2023-03-01T02:30:33;-3.40;99.90
33811;DHT22;20119;48.334;16.206;2023-03-01T02:33:00;-3.40;99.90
33811;DHT22;20119;48.334;16.206;2023-03-01T02:35:29;-3.30;99.90
33811;DHT22;20119;48.334;16.206;2023-03-01T02:37:59;-3.30;99.90
33811;DHT22;20119;48.334;16.206;2023-03-01T02:40:27;-3.10;99.90
33811;DHT22;20119;48.334;16.206;2023-03-01T02:43:14;-3.00;99.90
33811;DHT22;20119;48.334;16.206;2023-03-01T02:45:48;-2.90;99.90
33811;DHT22;20119;48.334;16.206;2023-03-01T02:48:15;-2.90;99.90
33811;DHT22;20119;48.334;16.206;2023-03-01T02:50:54;-2.80;99.90
33811;DHT22;20119;48.334;16.206;2023-03-01T02:53:35;-2.80;99.90
33811;DHT22;20119;48.334;16.206;2023-03-01T02:56:06;-2.70;99.90
33811;DHT22;20119;48.334;16.206;2023-03-01T02:58:39;-2.70;99.90
33811;DHT22;20119;48.334;16.206;2023-03-01T03:01:15;-2.60;99.90
33811;DHT22;20119;48.334;16.206;2023-03-01T03:03:43;-2.50;99.90
33811;DHT22;20119;48.334;16.206;2023-03-01T03:06:10;-2.50;99.90
33811;DHT22;20119;48.334;16.206;2023-03-01T03:08:37;-2.50;99.90
33811;DHT22;20119;48.334;16.206;2023-03-01T03:11:05;-2.40;99.90
33811;DHT22;20119;48.334;16.206;2023-03-01T03:13:32;-2.40;99.90
33811;DHT22;20119;48.334;16.206;2023-03-01T03:15:59;-2.30;99.90
33811;DHT22;20119;48.334;16.206;2023-03-01T03:18:28;-2.20;99.90
33811;DHT22;20119;48.334;16.206;2023-03-01T03:20:55;-2.20;99.90
33811;DHT22;20119;48.334;16.206;2023-03-01T03:23:22;-2.20;99.90
33811;DHT22;20119;48.334;16.206;2023-03-01T03:25:49;-2.10;99.90
33811;DHT22;20119;48.334;16.206;2023-03-01T03:28:17;-2.00;99.90
33811;DHT22;20119;48.334;16.206;2023-03-01T03:30:45;-2.00;99.90
33811;DHT22;20119;48.334;16.206;2023-03-01T03:33:12;-1.90;99.90
33811;DHT22;20119;48.334;16.206;2023-03-01T03:35:42;-1.80;99.90
33811;DHT22;20119;48.334;16.206;2023-03-01T03:38:10;-1.80;99.90
33811;DHT22;20119;48.334;16.206;2023-03-01T03:40:43;-1.70;99.90
33811;DHT22;20119;48.334;16.206;2023-03-01T03:43:13;-1.70;99.90
33811;DHT22;20119;48.334;16.206;2023-03-01T03:45:41;-1.60;99.90
33811;DHT22;20119;48.334;16.206;2023-03-01T03:48:09;-1.60;99.90
33811;DHT22;20119;48.334;16.206;2023-03-01T03:50:38;-1.50;99.90
33811;DHT22;20119;48.334;16.206;2023-03-01T03:53:08;-1.50;99.90
33811;DHT22;20119;48.334;16.206;2023-03-01T03:55:36;-1.50;99.90
33811;DHT22;20119;48.334;16.206;2023-03-01T03:58:06;-1.40;99.90
33811;DHT22;20119;48.334;16.206;2023-03-01T04:00:34;-1.40;99.90
33811;DHT22;20119;48.334;16.206;2023-03-01T04:03:02;-1.40;99.90
33811;DHT22;20119;48.334;16.206;2023-03-01T04:05:29;-1.40;99.90
33811;DHT22;20119;48.334;16.206;2023-03-01T04:07:58;-1.40;99.90
33811;DHT22;20119;48.334;16.206;2023-03-01T04:10:35;-1.50;99.90
33811;DHT22;20119;48.334;16.206;2023-03-01T04:13:03;-1.40;99.90
33811;DHT22;20119;48.334;16.206;2023-03-01T04:15:31;-1.30;99.90
33811;DHT22;20119;48.334;16.206;2023-03-01T04:17:59;-1.40;99.90
33811;DHT22;20119;48.334;16.206;2023-03-01T04:20:28;-1.40;99.90
33811;DHT22;20119;48.334;16.206;2023-03-01T04:22:58;-1.30;99.90
33811;DHT22;20119;48.334;16.206;2023-03-01T04:25:37;-1.30;99.90
33811;DHT22;20119;48.334;16.206;2023-03-01T04:28:04;-1.20;99.90
33811;DHT22;20119;48.334;16.206;2023-03-01T04:30:32;-1.10;99.90
33811;DHT22;20119;48.334;16.206;2023-03-01T04:33:04;-1.10;99.90
33811;DHT22;20119;48.334;16.206;2023-03-01T04:35:32;-1.10;99.90
33811;DHT22;20119;48.334;16.206;2023-03-01T04:38:00;-1.10;99.90
33811;DHT22;20119;48.334;16.206;2023-03-01T04:40:27;-1.00;99.90
33811;DHT22;20119;48.334;16.206;2023-03-01T04:42:56;-1.00;99.90
33811;DHT22;20119;48.334;16.206;2023-03-01T04:45:23;-1.00;99.90
33811;DHT22;20119;48.334;16.206;2023-03-01T04:47:51;-1.00;99.90
33811;DHT22;20119;48.334;16.206;2023-03-01T04:50:18;-1.00;99.90
33811;DHT22;20119;48.334;16.206;2023-03-01T04:52:47;-1.00;99.90
33811;DHT22;20119;48.334;16.206;2023-03-01T04:55:16;-1.00;99.90
33811;DHT22;20119;48.334;16.206;2023-03-01T04:57:43;-1.00;99.90
33811;DHT22;20119;48.334;16.206;2023-03-01T05:00:14;-1.00;99.90
33811;DHT22;20119;48.334;16.206;2023-03-01T05:02:48;-1.00;99.90
33811;DHT22;20119;48.334;16.206;2023-03-01T05:05:24;-0.90;99.90
33811;DHT22;20119;48.334;16.206;2023-03-01T05:07:53;-1.00;99.90
33811;DHT22;20119;48.334;16.206;2023-03-01T05:10:21;-1.00;99.90
33811;DHT22;20119;48.334;16.206;2023-03-01T05:12:49;-1.00;99.90
33811;DHT22;20119;48.334;16.206;2023-03-01T05:15:19;-1.10;99.90
33811;DHT22;20119;48.334;16.206;2023-03-01T05:17:48;-1.00;99.90
33811;DHT22;20119;48.334;16.206;2023-03-01T05:20:15;-1.00;99.90
33811;DHT22;20119;48.334;16.206;2023-03-01T05:22:42;-0.90;99.90
33811;DHT22;20119;48.334;16.206;2023-03-01T05:25:09;-0.90;99.90
33811;DHT22;20119;48.334;16.206;2023-03-01T05:27:39;-0.80;99.90
33811;DHT22;20119;48.334;16.206;2023-03-01T05:30:08;-0.80;99.90
33811;DHT22;20119;48.334;16.206;2023-03-01T05:32:46;-0.80;99.90
33811;DHT22;20119;48.334;16.206;2023-03-01T05:35:16;-0.80;99.90
33811;DHT22;20119;48.334;16.206;2023-03-01T05:37:45;-0.70;99.90
33811;DHT22;20119;48.334;16.206;2023-03-01T05:40:15;-0.80;99.90
33811;DHT22;20119;48.334;16.206;2023-03-01T05:42:43;-0.80;99.90
33811;DHT22;20119;48.334;16.206;2023-03-01T05:45:11;-0.80;99.90
33811;DHT22;20119;48.334;16.206;2023-03-01T05:47:39;-0.80;99.90
33811;DHT22;20119;48.334;16.206;2023-03-01T05:50:15;-0.70;99.90
33811;DHT22;20119;48.334;16.206;2023-03-01T05:52:45;-0.70;99.90
33811;DHT22;20119;48.334;16.206;2023-03-01T05:55:14;-0.60;99.90
33811;DHT22;20119;48.334;16.206;2023-03-01T05:57:41;-0.60;99.90
33811;DHT22;20119;48.334;16.206;2023-03-01T06:00:10;-0.50;99.90
33811;DHT22;20119;48.334;16.206;2023-03-01T06:02:38;-0.50;99.90
33811;DHT22;20119;48.334;16.206;2023-03-01T06:05:07;-0.60;99.90
33811;DHT22;20119;48.334;16.206;2023-03-01T06:07:36;-0.50;99.90
33811;DHT22;20119;48.334;16.206;2023-03-01T06:10:04;-0.40;99.90
33811;DHT22;20119;48.334;16.206;2023-03-01T06:12:32;-0.40;99.90
33811;DHT22;20119;48.334;16.206;2023-03-01T06:15:00;-0.30;99.90
33811;DHT22;20119;48.334;16.206;2023-03-01T06:17:29;-0.30;99.90
33811;DHT22;20119;48.334;16.206;2023-03-01T06:19:57;-0.30;99.90
33811;DHT22;20119;48.334;16.206;2023-03-01T06:22:24;-0.30;99.90
33811;DHT22;20119;48.334;16.206;2023-03-01T06:24:53;-0.30;99.90
33811;DHT22;20119;48.334;16.206;2023-03-01T06:27:20;-0.20;99.90
33811;DHT22;20119;48.334;16.206;2023-03-01T06:29:48;0.00;99.90
33811;DHT22;20119;48.334;16.206;2023-03-01T06:32:16;0.00;99.90
33811;DHT22;20119;48.334;16.206;2023-03-01T06:34:44;0.10;99.90
33811;DHT22;20119;48.334;16.206;2023-03-01T06:37:12;0.20;99.90
33811;DHT22;20119;48.334;16.206;2023-03-01T06:39:38;0.20;99.90
33811;DHT22;20119;48.334;16.206;2023-03-01T06:42:08;0.30;99.90
33811;DHT22;20119;48.334;16.206;2023-03-01T06:44:35;0.30;99.90
33811;DHT22;20119;48.334;16.206;2023-03-01T06:47:02;0.30;99.90
33811;DHT22;20119;48.334;16.206;2023-03-01T06:49:30;0.30;99.90
33811;DHT22;20119;48.334;16.206;2023-03-01T06:51:58;0.50;99.90
33811;DHT22;20119;48.334;16.206;2023-03-01T06:54:25;0.60;99.90
33811;DHT22;20119;48.334;16.206;2023-03-01T06:56:53;0.50;99.90
33811;DHT22;20119;48.334;16.206;2023-03-01T06:59:22;0.60;99.90
33811;DHT22;20119;48.334;16.206;2023-03-01T07:01:49;0.80;99.90
33811;DHT22;20119;48.334;16.206;2023-03-01T07:04:16;0.90;99.90
33811;DHT22;20119;48.334;16.206;2023-03-01T07:06:44;0.80;99.90
33811;DHT22;20119;48.334;16.206;2023-03-01T07:09:11;0.90;99.90
33811;DHT22;20119;48.334;16.206;2023-03-01T07:11:38;0.90;99.90
33811;DHT22;20119;48.334;16.206;2023-03-01T07:14:06;1.00;99.90
33811;DHT22;20119;48.334;16.206;2023-03-01T07:16:34;1.10;99.90
33811;DHT22;20119;48.334;16.206;2023-03-01T07:19:02;1.10;99.90
33811;DHT22;20119;48.334;16.206;2023-03-01T07:21:31;1.20;99.90
33811;DHT22;20119;48.334;16.206;2023-03-01T07:23:58;1.20;99.90
33811;DHT22;20119;48.334;16.206;2023-03-01T07:26:25;1.30;99.90
33811;DHT22;20119;48.334;16.206;2023-03-01T07:28:52;1.40;99.90
33811;DHT22;20119;48.334;16.206;2023-03-01T07:31:20;1.40;99.90
33811;DHT22;20119;48.334;16.206;2023-03-01T07:33:48;1.30;99.90
33811;DHT22;20119;48.334;16.206;2023-03-01T07:36:16;1.30;99.90
33811;DHT22;20119;48.334;16.206;2023-03-01T07:38:43;1.40;99.90
33811;DHT22;20119;48.334;16.206;2023-03-01T07:41:10;1.30;99.90
33811;DHT22;20119;48.334;16.206;2023-03-01T07:43:37;1.40;99.90
33811;DHT22;20119;48.334;16.206;2023-03-01T07:46:04;1.50;99.90
33811;DHT22;20119;48.334;16.206;2023-03-01T07:48:32;1.60;99.90
33811;DHT22;20119;48.334;16.206;2023-03-01T07:51:03;1.70;99.90
33811;DHT22;20119;48.334;16.206;2023-03-01T07:53:31;1.70;99.90
33811;DHT22;20119;48.334;16.206;2023-03-01T07:56:03;1.50;99.90
33811;DHT22;20119;48.334;16.206;2023-03-01T07:58:31;1.50;99.90
33811;DHT22;20119;48.334;16.206;2023-03-01T08:01:01;1.70;99.90
33811;DHT22;20119;48.334;16.206;2023-03-01T08:03:29;2.10;99.90
33811;DHT22;20119;48.334;16.206;2023-03-01T08:06:01;2.20;99.90
33811;DHT22;20119;48.334;16.206;2023-03-01T08:08:28;2.30;99.90
33811;DHT22;20119;48.334;16.206;2023-03-01T08:10:57;2.50;99.90
33811;DHT22;20119;48.334;16.206;2023-03-01T08:13:25;2.20;99.90
33811;DHT22;20119;48.334;16.206;2023-03-01T08:15:52;2.20;99.90
33811;DHT22;20119;48.334;16.206;2023-03-01T08:18:20;2.50;99.90
33811;DHT22;20119;48.334;16.206;2023-03-01T08:20:48;2.80;99.90
33811;DHT22;20119;48.334;16.206;2023-03-01T08:23:17;3.10;99.90
33811;DHT22;20119;48.334;16.206;2023-03-01T08:25:44;3.30;99.90
33811;DHT22;20119;48.334;16.206;2023-03-01T08:28:12;3.50;99.90
33811;DHT22;20119;48.334;16.206;2023-03-01T08:30:40;3.50;99.90
33811;DHT22;20119;48.334;16.206;2023-03-01T08:33:06;3.60;99.90
33811;DHT22;20119;48.334;16.206;2023-03-01T08:35:33;3.80;99.90
33811;DHT22;20119;48.334;16.206;2023-03-01T08:38:01;3.50;99.90
33811;DHT22;20119;48.334;16.206;2023-03-01T08:40:29;3.50;99.90
33811;DHT22;20119;48.334;16.206;2023-03-01T08:42:58;3.80;99.90
33811;DHT22;20119;48.334;16.206;2023-03-01T08:45:25;3.80;99.90
33811;DHT22;20119;48.334;16.206;2023-03-01T08:47:53;3.40;99.90
33811;DHT22;20119;48.334;16.206;2023-03-01T08:50:20;3.20;99.90
33811;DHT22;20119;48.334;16.206;2023-03-01T08:52:49;3.20;99.90
33811;DHT22;20119;48.334;16.206;2023-03-01T08:55:17;2.80;99.90
33811;DHT22;20119;48.334;16.206;2023-03-01T08:57:46;2.80;99.90
33811;DHT22;20119;48.334;16.206;2023-03-01T09:00:13;2.80;99.90
33811;DHT22;20119;48.334;16.206;2023-03-01T09:02:42;3.00;99.90
33811;DHT22;20119;48.334;16.206;2023-03-01T09:05:10;3.20;99.90
33811;DHT22;20119;48.334;16.206;2023-03-01T09:07:37;3.70;99.90
33811;DHT22;20119;48.334;16.206;2023-03-01T09:10:06;3.70;99.90
33811;DHT22;20119;48.334;16.206;2023-03-01T09:12:33;4.10;99.90
33811;DHT22;20119;48.334;16.206;2023-03-01T09:15:03;4.20;99.90
33811;DHT22;20119;48.334;16.206;2023-03-01T09:17:30;4.50;99.90
33811;DHT22;20119;48.334;16.206;2023-03-01T09:19:57;4.90;99.90
33811;DHT22;20119;48.334;16.206;2023-03-01T09:22:25;5.60;99.90
33811;DHT22;20119;48.334;16.206;2023-03-01T09:24:52;5.20;99.90
33811;DHT22;20119;48.334;16.206;2023-03-01T09:27:19;5.20;99.90
33811;DHT22;20119;48.334;16.206;2023-03-01T09:29:47;5.20;99.90
33811;DHT22;20119;48.334;16.206;2023-03-01T09:32:16;4.90;99.90
33811;DHT22;20119;48.334;16.206;2023-03-01T09:34:43;5.10;99.90
33811;DHT22;20119;48.334;16.206;2023-03-01T09:37:30;5.00;99.90
33811;DHT22;20119;48.334;16.206;2023-03-01T09:39:58;4.80;99.90
33811;DHT22;20119;48.334;16.206;2023-03-01T09:42:28;4.90;99.90
33811;DHT22;20119;48.334;16.206;2023-03-01T09:45:00;4.90;99.90
33811;DHT22;20119;48.334;16.206;2023-03-01T09:47:34;5.00;99.90
33811;DHT22;20119;48.334;16.206;2023-03-01T09:50:06;5.10;99.90
33811;DHT22;20119;48.334;16.206;2023-03-01T09:52:40;5.30;99.90
33811;DHT22;20119;48.334;16.206;2023-03-01T09:55:11;5.50;99.90
33811;DHT22;20119;48.334;16.206;2023-03-01T09:57:46;5.70;99.90
33811;DHT22;20119;48.334;16.206;2023-03-01T10:00:28;5.40;99.90
33811;DHT22;20119;48.334;16.206;2023-03-01T10:03:03;5.40;99.90
33811;DHT22;20119;48.334;16.206;2023-03-01T10:05:41;5.10;99.90
33811;DHT22;20119;48.334;16.206;2023-03-01T10:08:29;5.50;99.90
33811;DHT22;20119;48.334;16.206;2023-03-01T10:10:59;5.60;99.90
33811;DHT22;20119;48.334;16.206;2023-03-01T10:13:33;5.60;99.90
33811;DHT22;20119;48.334;16.206;2023-03-01T10:16:10;5.60;99.90
33811;DHT22;20119;48.334;16.206;2023-03-01T10:18:41;5.80;99.90
33811;DHT22;20119;48.334;16.206;2023-03-01T10:21:14;6.00;99.90
33811;DHT22;20119;48.334;16.206;2023-03-01T10:23:43;6.00;99.90
33811;DHT22;20119;48.334;16.206;2023-03-01T10:26:28;6.20;99.90
33811;DHT22;20119;48.334;16.206;2023-03-01T10:29:02;6.30;99.90
33811;DHT22;20119;48.334;16.206;2023-03-01T10:31:37;6.30;99.90
33811;DHT22;20119;48.334;16.206;2023-03-01T10:34:11;6.60;99.90
33811;DHT22;20119;48.334;16.206;2023-03-01T10:36:40;6.70;99.90
33811;DHT22;20119;48.334;16.206;2023-03-01T10:39:16;6.80;99.90
33811;DHT22;20119;48.334;16.206;2023-03-01T10:41:56;7.00;99.90
33811;DHT22;20119;48.334;16.206;2023-03-01T10:44:41;6.90;99.90
33811;DHT22;20119;48.334;16.206;2023-03-01T10:47:20;6.70;99.90
33811;DHT22;20119;48.334;16.206;2023-03-01T10:49:57;6.60;99.90
33811;DHT22;20119;48.334;16.206;2023-03-01T10:52:28;6.60;99.90
33811;DHT22;20119;48.334;16.206;2023-03-01T10:54:57;7.00;99.90
33811;DHT22;20119;48.334;16.206;2023-03-01T10:57:37;6.80;99.90
33811;DHT22;20119;48.334;16.206;2023-03-01T11:00:18;6.60;99.90
33811;DHT22;20119;48.334;16.206;2023-03-01T11:02:48;6.70;99.90
33811;DHT22;20119;48.334;16.206;2023-03-01T11:05:23;6.90;99.90
33811;DHT22;20119;48.334;16.206;2023-03-01T11:07:52;6.80;99.90
33811;DHT22;20119;48.334;16.206;2023-03-01T11:10:22;6.70;99.90
33811;DHT22;20119;48.334;16.206;2023-03-01T11:12:51;6.80;99.90
33811;DHT22;20119;48.334;16.206;2023-03-01T11:15:24;6.70;99.90
33811;DHT22;20119;48.334;16.206;2023-03-01T11:17:52;6.80;99.90
33811;DHT22;20119;48.334;16.206;2023-03-01T11:20:29;6.70;99.90
33811;DHT22;20119;48.334;16.206;2023-03-01T11:22:59;6.50;99.90
33811;DHT22;20119;48.334;16.206;2023-03-01T11:25:32;6.60;99.90
33811;DHT22;20119;48.334;16.206;2023-03-01T11:28:03;6.70;99.90
33811;DHT22;20119;48.334;16.206;2023-03-01T11:30:34;6.90;99.90
33811;DHT22;20119;48.334;16.206;2023-03-01T11:33:11;7.00;99.90
33811;DHT22;20119;48.334;16.206;2023-03-01T11:35:46;6.80;99.90
33811;DHT22;20119;48.334;16.206;2023-03-01T11:38:21;6.80;99.90
33811;DHT22;20119;48.334;16.206;2023-03-01T11:40:52;6.80;99.90
33811;DHT22;20119;48.334;16.206;2023-03-01T11:43:31;6.90;99.90
33811;DHT22;20119;48.334;16.206;2023-03-01T11:46:35;6.70;99.90
33811;DHT22;20119;48.334;16.206;2023-03-01T11:49:18;7.00;99.90
33811;DHT22;20119;48.334;16.206;2023-03-01T11:51:55;7.20;99.90
33811;DHT22;20119;48.334;16.206;2023-03-01T11:54:33;7.40;99.90
33811;DHT22;20119;48.334;16.206;2023-03-01T11:57:13;7.30;99.90
33811;DHT22;20119;48.334;16.206;2023-03-01T11:59:59;7.10;99.90
33811;DHT22;20119;48.334;16.206;2023-03-01T12:02:48;7.20;99.90
33811;DHT22;20119;48.334;16.206;2023-03-01T12:05:25;7.20;99.90
33811;DHT22;20119;48.334;16.206;2023-03-01T12:08:01;7.50;99.90
33811;DHT22;20119;48.334;16.206;2023-03-01T12:10:34;7.30;99.90
33811;DHT22;20119;48.334;16.206;2023-03-01T12:13:23;7.40;99.90
33811;DHT22;20119;48.334;16.206;2023-03-01T12:16:15;7.80;99.90
33811;DHT22;20119;48.334;16.206;2023-03-01T12:19:21;7.70;99.90
33811;DHT22;20119;48.334;16.206;2023-03-01T12:22:09;7.30;99.90
33811;DHT22;20119;48.334;16.206;2023-03-01T12:27:59;7.40;99.90
33811;DHT22;20119;48.334;16.206;2023-03-01T12:30:37;7.70;99.90
33811;DHT22;20119;48.334;16.206;2023-03-01T12:33:17;7.80;99.90
33811;DHT22;20119;48.334;16.206;2023-03-01T12:36:10;7.80;99.90
33811;DHT22;20119;48.334;16.206;2023-03-01T12:38:45;7.90;99.90
33811;DHT22;20119;48.334;16.206;2023-03-01T12:41:42;8.00;99.90
33811;DHT22;20119;48.334;16.206;2023-03-01T12:44:31;8.30;99.90
33811;DHT22;20119;48.334;16.206;2023-03-01T12:47:14;8.30;99.90
33811;DHT22;20119;48.334;16.206;2023-03-01T12:49:50;8.50;99.90
33811;DHT22;20119;48.334;16.206;2023-03-01T12:52:23;8.70;99.90
33811;DHT22;20119;48.334;16.206;2023-03-01T12:54:53;8.50;99.90
33811;DHT22;20119;48.334;16.206;2023-03-01T12:57:29;8.50;99.90
33811;DHT22;20119;48.334;16.206;2023-03-01T13:00:17;8.40;99.90
33811;DHT22;20119;48.334;16.206;2023-03-01T13:02:54;8.30;99.90
33811;DHT22;20119;48.334;16.206;2023-03-01T13:05:31;8.20;99.90
33811;DHT22;20119;48.334;16.206;2023-03-01T13:08:07;8.40;99.90
33811;DHT22;20119;48.334;16.206;2023-03-01T13:10:45;8.40;99.90
33811;DHT22;20119;48.334;16.206;2023-03-01T13:13:20;8.40;99.90
33811;DHT22;20119;48.334;16.206;2023-03-01T13:15:48;8.50;99.90
33811;DHT22;20119;48.334;16.206;2023-03-01T13:20:53;8.40;99.90
33811;DHT22;20119;48.334;16.206;2023-03-01T13:23:27;8.40;99.90
33811;DHT22;20119;48.334;16.206;2023-03-01T13:26:15;8.40;99.90
33811;DHT22;20119;48.334;16.206;2023-03-01T13:29:02;8.40;99.90
33811;DHT22;20119;48.334;16.206;2023-03-01T13:31:59;8.50;99.90
33811;DHT22;20119;48.334;16.206;2023-03-01T13:34:47;8.30;99.90
33811;DHT22;20119;48.334;16.206;2023-03-01T13:37:36;8.40;99.90
33811;DHT22;20119;48.334;16.206;2023-03-01T13:43:31;7.70;99.90
33811;DHT22;20119;48.334;16.206;2023-03-01T13:46:01;7.80;99.90
33811;DHT22;20119;48.334;16.206;2023-03-01T13:48:34;7.90;99.90
33811;DHT22;20119;48.334;16.206;2023-03-01T13:51:03;8.00;99.90
33811;DHT22;20119;48.334;16.206;2023-03-01T13:53:50;8.00;99.90
33811;DHT22;20119;48.334;16.206;2023-03-01T13:56:21;8.00;99.90
33811;DHT22;20119;48.334;16.206;2023-03-01T13:58:53;7.80;99.90
33811;DHT22;20119;48.334;16.206;2023-03-01T14:01:28;7.80;99.90
33811;DHT22;20119;48.334;16.206;2023-03-01T14:03:56;8.00;99.90
33811;DHT22;20119;48.334;16.206;2023-03-01T14:06:24;8.10;99.90
33811;DHT22;20119;48.334;16.206;2023-03-01T14:09:02;7.90;99.90
33811;DHT22;20119;48.334;16.206;2023-03-01T14:14:54;7.80;99.90
33811;DHT22;20119;48.334;16.206;2023-03-01T14:17:47;7.60;99.90
33811;DHT22;20119;48.334;16.206;2023-03-01T14:20:19;7.60;99.90
33811;DHT22;20119;48.334;16.206;2023-03-01T14:22:48;7.70;99.90
33811;DHT22;20119;48.334;16.206;2023-03-01T14:25:25;7.60;99.90
33811;DHT22;20119;48.334;16.206;2023-03-01T14:27:59;7.60;99.90
33811;DHT22;20119;48.334;16.206;2023-03-01T14:30:30;7.50;99.90
33811;DHT22;20119;48.334;16.206;2023-03-01T14:33:03;7.60;99.90
33811;DHT22;20119;48.334;16.206;2023-03-01T14:35:33;7.60;99.90
33811;DHT22;20119;48.334;16.206;2023-03-01T14:38:00;7.60;99.90
33811;DHT22;20119;48.334;16.206;2023-03-01T14:40:30;7.50;99.90
33811;DHT22;20119;48.334;16.206;2023-03-01T14:43:00;7.60;99.90
33811;DHT22;20119;48.334;16.206;2023-03-01T14:45:29;7.50;99.90
33811;DHT22;20119;48.334;16.206;2023-03-01T14:48:02;7.50;99.90
33811;DHT22;20119;48.334;16.206;2023-03-01T14:50:31;7.50;99.90
33811;DHT22;20119;48.334;16.206;2023-03-01T14:53:02;7.50;99.90
33811;DHT22;20119;48.334;16.206;2023-03-01T14:55:32;7.40;99.90
33811;DHT22;20119;48.334;16.206;2023-03-01T14:58:04;7.40;99.90
33811;DHT22;20119;48.334;16.206;2023-03-01T15:00:33;7.50;99.90
33811;DHT22;20119;48.334;16.206;2023-03-01T15:03:07;7.40;99.90
33811;DHT22;20119;48.334;16.206;2023-03-01T15:05:39;7.40;99.90
33811;DHT22;20119;48.334;16.206;2023-03-01T15:08:07;7.50;99.90
33811;DHT22;20119;48.334;16.206;2023-03-01T15:10:40;7.50;99.90
33811;DHT22;20119;48.334;16.206;2023-03-01T15:13:11;7.40;99.90
33811;DHT22;20119;48.334;16.206;2023-03-01T15:15:41;7.40;99.90
33811;DHT22;20119;48.334;16.206;2023-03-01T15:18:17;7.40;99.90
33811;DHT22;20119;48.334;16.206;2023-03-01T15:20:45;7.40;99.90
33811;DHT22;20119;48.334;16.206;2023-03-01T15:23:21;7.40;99.90
33811;DHT22;20119;48.334;16.206;2023-03-01T15:25:49;7.50;99.90
33811;DHT22;20119;48.334;16.206;2023-03-01T15:28:23;7.50;99.90
33811;DHT22;20119;48.334;16.206;2023-03-01T15:30:56;7.40;99.90
33811;DHT22;20119;48.334;16.206;2023-03-01T15:33:36;7.50;99.90
33811;DHT22;20119;48.334;16.206;2023-03-01T15:36:32;7.50;99.90
33811;DHT22;20119;48.334;16.206;2023-03-01T15:39:00;7.50;99.90
33811;DHT22;20119;48.334;16.206;2023-03-01T15:41:30;7.30;99.90
33811;DHT22;20119;48.334;16.206;2023-03-01T15:43:58;7.30;99.90
33811;DHT22;20119;48.334;16.206;2023-03-01T15:46:28;7.30;99.90
33811;DHT22;20119;48.334;16.206;2023-03-01T15:49:00;7.30;99.90
33811;DHT22;20119;48.334;16.206;2023-03-01T15:51:32;7.30;99.90
33811;DHT22;20119;48.334;16.206;2023-03-01T15:54:03;7.30;99.90
33811;DHT22;20119;48.334;16.206;2023-03-01T15:56:32;7.30;99.90
33811;DHT22;20119;48.334;16.206;2023-03-01T15:59:02;7.40;99.90
33811;DHT22;20119;48.334;16.206;2023-03-01T16:01:30;7.30;99.90
33811;DHT22;20119;48.334;16.206;2023-03-01T16:04:01;7.40;99.90